Terminal Aerodrome Forecast
Issued by NWS Albany, NY

Current Version | Previous Version | Text Only | Print | Product List | Glossary On
Versions: 1 2 3 4 5 6 7 8 9 10 11 12 13 14 15 16 17 18 19 20 21 22 23 24 25 26 27 28 29 30 31 32 33 34 35 36 37 38 39 40 41 42
000
FTUS41 KALY 131746
TAFALB
TAF
KALB 131746Z 1318/1418 17008KT P6SM SCT060
     FM140700 17007KT 6SM -SHRA BR BKN012 PROB30 1408/1412 2SM +SHRA
      BR BKN008 OVC012
     FM141200 17008KT 4SM -SHRA BR OVC010=

USA.gov is the U.S. government's official web portal to all federal, state and local government web resources and services.